createdAt,value
2018-04-24T00:01:39.490Z,9.40
2018-04-24T00:04:07.605Z,9.07
2018-04-24T00:06:35.741Z,10.00
2018-04-24T00:09:03.871Z,10.43
2018-04-24T00:11:32.057Z,10.73
2018-04-24T00:14:00.181Z,10.70
2018-04-24T00:16:28.297Z,11.00
2018-04-24T00:18:56.437Z,10.30
2018-04-24T00:21:24.589Z,10.52
2018-04-24T00:23:52.722Z,10.43
2018-04-24T00:26:20.850Z,9.30
2018-04-24T00:28:48.975Z,9.90
2018-04-24T00:31:17.161Z,10.07
2018-04-24T00:33:45.305Z,9.60
2018-04-24T00:36:13.421Z,9.73
2018-04-24T00:38:41.584Z,11.20
2018-04-24T00:41:10.176Z,11.10
2018-04-24T00:43:38.740Z,9.20
2018-04-24T00:46:06.872Z,11.23
2018-04-24T00:48:34.991Z,9.63
2018-04-24T00:51:03.109Z,9.80
2018-04-24T00:53:43.223Z,9.67
2018-04-24T00:56:11.344Z,10.00
2018-04-24T00:58:39.465Z,9.30
2018-04-24T01:01:07.599Z,9.13
2018-04-24T01:03:35.744Z,9.90
2018-04-24T01:06:03.853Z,9.77
2018-04-24T01:08:31.994Z,8.13
2018-04-24T01:11:00.120Z,7.93
2018-04-24T01:13:28.344Z,10.13
2018-04-24T01:15:56.487Z,9.67
2018-04-24T01:18:24.615Z,8.30
2018-04-24T01:20:52.738Z,9.90
2018-04-24T01:23:20.874Z,10.05
2018-04-24T01:25:49.071Z,9.30
2018-04-24T01:28:17.190Z,9.07
2018-04-24T01:30:45.331Z,8.87
2018-04-24T01:33:13.447Z,9.00
2018-04-24T01:35:41.600Z,8.30
2018-04-24T01:38:09.722Z,8.17
2018-04-24T01:40:37.848Z,8.93
2018-04-24T01:43:06.009Z,9.73
2018-04-24T01:45:34.226Z,9.40
2018-04-24T01:48:02.347Z,9.30
2018-04-24T01:50:30.479Z,10.13
2018-04-24T01:52:58.647Z,10.03
2018-04-24T01:55:26.777Z,10.03
2018-04-24T01:57:54.895Z,8.97
2018-04-24T02:00:23.016Z,9.63
2018-04-24T02:02:51.350Z,10.67
2018-04-24T02:05:19.474Z,10.55
2018-04-24T02:07:47.605Z,9.87
2018-04-24T02:10:15.730Z,9.77
2018-04-24T02:12:43.874Z,10.30
2018-04-24T02:15:12.008Z,10.67
2018-04-24T02:17:40.131Z,10.27
2018-04-24T02:20:08.291Z,9.40
2018-04-24T02:22:36.526Z,10.20
2018-04-24T02:25:04.668Z,10.10
2018-04-24T02:27:32.745Z,10.00
2018-04-24T02:30:01.077Z,10.40
2018-04-24T02:32:29.182Z,9.17
2018-04-24T02:34:57.336Z,11.63
2018-04-24T02:37:25.477Z,12.20
2018-04-24T02:39:53.618Z,11.00
2018-04-24T02:42:21.757Z,11.73
2018-04-24T02:44:49.954Z,11.13
2018-04-24T02:47:18.071Z,10.80
2018-04-24T02:49:46.224Z,10.90
2018-04-24T02:52:14.361Z,12.07
2018-04-24T02:54:42.525Z,11.47
2018-04-24T02:57:10.683Z,12.73
2018-04-24T02:59:38.840Z,12.10
2018-04-24T03:02:06.965Z,12.73
2018-04-24T03:04:38.844Z,12.90
2018-04-24T03:07:07.082Z,13.87
2018-04-24T03:09:35.207Z,12.87
2018-04-24T03:12:03.379Z,14.10
2018-04-24T03:14:31.527Z,13.70
2018-04-24T03:16:59.643Z,13.10
2018-04-24T03:19:27.805Z,15.20
2018-04-24T03:21:55.948Z,14.13
2018-04-24T03:24:24.087Z,14.50
2018-04-24T03:26:52.250Z,14.70
2018-04-24T03:29:20.406Z,14.57
2018-04-24T03:31:48.575Z,15.70
2018-04-24T03:34:16.727Z,15.23
2018-04-24T03:36:44.860Z,15.37
2018-04-24T03:39:13.026Z,14.27
2018-04-24T03:41:41.190Z,15.60
2018-04-24T03:44:09.322Z,14.82
2018-04-24T03:46:37.456Z,15.67
2018-04-24T03:49:05.637Z,15.93
2018-04-24T03:51:33.820Z,16.37
2018-04-24T03:54:01.942Z,16.37
2018-04-24T03:56:30.078Z,17.60
2018-04-24T03:58:58.259Z,18.27
2018-04-24T04:01:26.424Z,17.73
2018-04-24T04:03:54.568Z,17.10
2018-04-24T04:06:22.691Z,18.27
2018-04-24T04:08:50.838Z,17.87
2018-04-24T04:11:18.985Z,18.83
2018-04-24T04:13:47.123Z,17.27
2018-04-24T04:16:15.590Z,16.53
2018-04-24T04:18:55.475Z,15.60
2018-04-24T04:24:36.449Z,14.40
2018-04-24T04:27:04.586Z,13.67
2018-04-24T04:29:32.756Z,13.77
2018-04-24T04:32:00.972Z,12.33
2018-04-24T04:34:29.121Z,12.85
2018-04-24T04:36:57.265Z,13.00
2018-04-24T04:39:25.408Z,10.60
2018-04-24T04:41:53.577Z,12.67
2018-04-24T04:44:21.702Z,14.20
2018-04-24T04:46:49.870Z,12.60
2018-04-24T04:49:17.998Z,12.40
2018-04-24T04:51:46.170Z,11.73
2018-04-24T04:54:14.327Z,11.47
2018-04-24T04:56:42.479Z,11.47
2018-04-24T04:59:10.614Z,10.67
2018-04-24T05:01:38.755Z,11.97
2018-04-24T05:04:06.888Z,10.20
2018-04-24T05:06:35.029Z,11.20
2018-04-24T05:09:03.182Z,10.80
2018-04-24T05:11:31.335Z,11.57
2018-04-24T05:13:59.470Z,10.27
2018-04-24T05:16:27.599Z,11.63
2018-04-24T05:18:55.725Z,11.07
2018-04-24T05:21:24.052Z,10.57
2018-04-24T05:23:52.225Z,10.77
2018-04-24T05:26:20.422Z,10.73
2018-04-24T05:28:48.602Z,9.83
2018-04-24T05:31:16.739Z,10.90
2018-04-24T05:33:44.883Z,10.60
2018-04-24T05:36:13.021Z,9.73
2018-04-24T05:38:41.164Z,9.10
2018-04-24T05:41:10.187Z,8.63
2018-04-24T05:43:38.311Z,9.50
2018-04-24T05:46:06.465Z,10.07
2018-04-24T05:48:34.638Z,8.80
2018-04-24T05:51:02.814Z,9.30
2018-04-24T05:53:30.957Z,10.17
2018-04-24T05:55:59.072Z,9.53
2018-04-24T05:58:27.264Z,8.38
2018-04-24T06:00:55.398Z,8.13
2018-04-24T06:03:23.538Z,7.40
2018-04-24T06:05:51.657Z,8.07
2018-04-24T06:08:19.999Z,8.27
2018-04-24T06:10:48.047Z,9.20
2018-04-24T06:13:16.205Z,8.77
2018-04-24T06:15:44.325Z,8.25
2018-04-24T06:18:12.450Z,8.07
2018-04-24T06:20:40.606Z,8.67
2018-04-24T06:23:08.723Z,8.18
2018-04-24T06:25:36.850Z,8.20
2018-04-24T06:28:04.982Z,9.57
2018-04-24T06:30:33.111Z,9.00
2018-04-24T06:33:01.335Z,9.33
2018-04-24T06:35:29.505Z,10.30
2018-04-24T06:37:57.627Z,9.37
2018-04-24T06:40:25.757Z,10.20
2018-04-24T06:42:53.880Z,9.13
2018-04-24T06:45:22.030Z,9.75
2018-04-24T06:47:50.207Z,9.83
2018-04-24T06:50:18.276Z,9.50
2018-04-24T06:52:46.439Z,10.90
2018-04-24T06:55:14.563Z,8.70
2018-04-24T06:57:42.769Z,10.70
2018-04-24T07:00:10.927Z,10.00
2018-04-24T07:02:39.048Z,8.40
2018-04-24T07:05:07.212Z,10.80
2018-04-24T07:07:35.361Z,10.03
2018-04-24T07:10:03.518Z,9.80
2018-04-24T07:12:31.654Z,11.10
2018-04-24T07:14:59.803Z,8.83
2018-04-24T07:17:27.946Z,9.85
2018-04-24T07:19:56.074Z,8.57
2018-04-24T07:22:24.206Z,7.73
2018-04-24T07:24:52.371Z,8.67
2018-04-24T07:27:20.485Z,7.40
2018-04-24T07:29:48.643Z,7.25
2018-04-24T07:32:16.759Z,6.60
2018-04-24T07:34:45.144Z,7.77
2018-04-24T07:37:13.288Z,7.60
2018-04-24T07:39:41.405Z,8.30
2018-04-24T07:42:09.531Z,8.20
2018-04-24T07:44:37.672Z,7.40
2018-04-24T07:47:05.809Z,7.67
2018-04-24T07:49:33.935Z,7.80
2018-04-24T07:52:02.061Z,6.37
2018-04-24T07:54:30.188Z,7.20
2018-04-24T07:56:58.305Z,5.90
2018-04-24T07:59:26.581Z,6.63
2018-04-24T08:01:54.555Z,6.73
2018-04-24T08:04:22.686Z,6.60
2018-04-24T08:06:50.815Z,7.23
2018-04-24T08:09:18.925Z,7.18
2018-04-24T08:11:47.047Z,7.23
2018-04-24T08:14:15.215Z,7.57
2018-04-24T08:16:43.328Z,7.55
2018-04-24T08:19:11.461Z,8.80
2018-04-24T08:21:39.582Z,7.30
2018-04-24T08:24:07.729Z,8.10
2018-04-24T08:26:35.842Z,9.00
2018-04-24T08:29:04.028Z,9.43
2018-04-24T08:31:32.160Z,10.20
2018-04-24T08:34:00.301Z,9.60
2018-04-24T08:36:28.416Z,8.53
2018-04-24T08:38:56.566Z,9.83
2018-04-24T08:41:24.681Z,9.50
2018-04-24T08:43:52.825Z,11.00
2018-04-24T08:46:20.942Z,9.57
2018-04-24T08:48:49.094Z,10.63
2018-04-24T08:51:17.517Z,11.52
2018-04-24T08:53:45.901Z,11.20
2018-04-24T08:56:14.066Z,11.37
2018-04-24T08:58:42.245Z,11.90
2018-04-24T09:01:10.383Z,10.97
2018-04-24T09:03:38.519Z,13.33
2018-04-24T09:06:06.655Z,12.20
2018-04-24T09:08:34.813Z,11.90
2018-04-24T09:11:02.925Z,11.77
2018-04-24T09:13:31.114Z,12.63
2018-04-24T09:15:59.286Z,13.80
2018-04-24T09:18:27.411Z,13.70
2018-04-24T09:20:55.605Z,15.30
2018-04-24T09:23:23.760Z,14.25
2018-04-24T09:25:51.906Z,15.95
2018-04-24T09:28:20.033Z,15.60
2018-04-24T09:30:48.177Z,17.30
2018-04-24T09:33:16.297Z,18.30
2018-04-24T09:35:44.430Z,18.37
2018-04-24T09:38:12.594Z,19.20
2018-04-24T09:40:40.730Z,18.10
2018-04-24T09:43:09.917Z,18.23
2018-04-24T09:45:38.046Z,17.03
2018-04-24T09:48:06.186Z,16.10
2018-04-24T09:50:34.334Z,16.83
2018-04-24T09:53:02.465Z,17.25
2018-04-24T09:55:30.622Z,18.20
2018-04-24T09:57:58.766Z,15.83
2018-04-24T10:00:32.449Z,14.67
2018-04-24T10:03:00.626Z,16.23
2018-04-24T10:05:28.765Z,14.83
2018-04-24T10:07:56.932Z,14.90
2018-04-24T10:10:25.066Z,14.70
2018-04-24T10:12:53.220Z,14.90
2018-04-24T10:15:21.415Z,13.48
2018-04-24T10:17:49.559Z,13.27
2018-04-24T10:20:17.697Z,13.87
2018-04-24T10:22:45.832Z,14.80
2018-04-24T10:25:15.078Z,14.50
2018-04-24T10:27:43.208Z,12.90
2018-04-24T10:30:11.348Z,13.10
2018-04-24T10:32:39.470Z,12.50
2018-04-24T10:35:07.636Z,12.50
2018-04-24T10:37:35.784Z,11.90
2018-04-24T10:40:03.928Z,11.63
2018-04-24T10:42:32.061Z,11.67
2018-04-24T10:45:00.207Z,12.40
2018-04-24T10:47:28.655Z,11.55
2018-04-24T10:49:56.786Z,11.83
2018-04-24T10:52:24.919Z,12.33
2018-04-24T10:54:53.049Z,12.63
2018-04-24T10:57:21.190Z,11.30
2018-04-24T10:59:49.332Z,11.97
2018-04-24T11:02:17.522Z,12.20
2018-04-24T11:04:45.642Z,11.60
2018-04-24T11:07:13.782Z,9.80
2018-04-24T11:09:41.921Z,10.77
2018-04-24T11:12:10.048Z,10.17
2018-04-24T11:14:38.207Z,11.63
2018-04-24T11:17:07.462Z,11.13
2018-04-24T11:19:35.559Z,10.13
2018-04-24T11:22:03.707Z,10.25
2018-04-24T11:24:31.850Z,10.00
2018-04-24T11:26:59.984Z,10.47
2018-04-24T11:29:28.148Z,11.10
2018-04-24T11:31:56.301Z,9.73
2018-04-24T11:34:24.487Z,11.27
2018-04-24T11:36:52.592Z,11.57
2018-04-24T11:39:20.737Z,10.32
2018-04-24T11:41:49.772Z,10.63
2018-04-24T11:44:17.905Z,10.52
2018-04-24T11:46:46.039Z,10.50
2018-04-24T11:49:14.165Z,11.67
2018-04-24T11:51:42.327Z,10.02
2018-04-24T11:54:10.507Z,11.57
2018-04-24T11:56:38.635Z,10.75
2018-04-24T11:59:06.769Z,10.23
2018-04-24T12:01:34.930Z,10.37
2018-04-24T12:04:03.036Z,10.30
2018-04-24T12:06:31.168Z,9.40
2018-04-24T12:08:59.315Z,10.30
2018-04-24T12:11:27.435Z,9.80
2018-04-24T12:13:55.574Z,11.53
2018-04-24T12:16:23.715Z,10.30
2018-04-24T12:18:51.858Z,10.07
2018-04-24T12:21:19.978Z,10.40
2018-04-24T12:23:48.122Z,10.07
2018-04-24T12:26:16.284Z,9.20
2018-04-24T12:28:44.654Z,9.23
2018-04-24T12:31:12.775Z,8.07
2018-04-24T12:33:40.981Z,9.23
2018-04-24T12:36:09.196Z,9.20
2018-04-24T12:38:37.383Z,7.87
2018-04-24T12:41:05.676Z,9.13
2018-04-24T12:43:33.900Z,8.90
2018-04-24T12:46:02.277Z,8.20
2018-04-24T12:48:30.595Z,9.43
2018-04-24T12:50:58.767Z,7.53
2018-04-24T12:53:26.906Z,6.47
2018-04-24T12:55:55.039Z,6.70
2018-04-24T12:58:23.165Z,9.30
2018-04-24T13:00:51.292Z,7.80
2018-04-24T13:03:19.449Z,8.13
2018-04-24T13:05:47.583Z,8.90
2018-04-24T13:08:16.448Z,8.10
2018-04-24T13:10:44.554Z,8.67
2018-04-24T13:13:12.685Z,8.07
2018-04-24T13:15:40.851Z,8.45
2018-04-24T13:18:08.976Z,6.70
2018-04-24T13:20:37.113Z,7.70
2018-04-24T13:23:05.262Z,8.03
2018-04-24T13:25:33.478Z,7.47
2018-04-24T13:28:01.750Z,7.83
2018-04-24T13:30:29.904Z,7.70
2018-04-24T13:32:58.034Z,7.60
2018-04-24T13:35:26.176Z,7.00
2018-04-24T13:37:54.553Z,8.00
2018-04-24T13:40:22.701Z,7.20
2018-04-24T13:42:50.939Z,6.50
2018-04-24T13:45:19.119Z,7.00
2018-04-24T13:47:47.264Z,8.05
2018-04-24T13:50:15.534Z,6.80
2018-04-24T13:52:44.180Z,8.03
2018-04-24T13:55:12.707Z,8.07
2018-04-24T13:57:40.872Z,7.70
2018-04-24T14:00:08.991Z,6.87
2018-04-24T14:02:37.151Z,6.83
2018-04-24T14:05:05.358Z,6.70
2018-04-24T14:07:33.469Z,7.37
2018-04-24T14:10:01.610Z,6.13
2018-04-24T14:12:29.753Z,7.17
2018-04-24T14:14:59.513Z,6.57
2018-04-24T14:17:27.628Z,6.70
2018-04-24T14:19:55.746Z,7.90
2018-04-24T14:22:23.887Z,6.77
2018-04-24T14:24:52.025Z,7.17
2018-04-24T14:27:20.178Z,6.70
2018-04-24T14:29:48.327Z,7.13
2018-04-24T14:32:16.461Z,5.80
2018-04-24T14:34:44.618Z,7.10
2018-04-24T14:37:12.765Z,6.20
2018-04-24T14:39:40.882Z,6.03
2018-04-24T14:42:09.677Z,6.27
2018-04-24T14:44:37.917Z,6.33
2018-04-24T14:47:06.091Z,5.70
2018-04-24T14:49:34.334Z,5.80
2018-04-24T14:52:02.458Z,6.17
2018-04-24T14:54:30.587Z,6.70
2018-04-24T14:56:58.740Z,6.70
2018-04-24T14:59:26.858Z,6.23
2018-04-24T15:01:55.036Z,6.37
2018-04-24T15:04:23.180Z,5.62
2018-04-24T15:06:51.303Z,6.10
2018-04-24T15:09:19.445Z,5.60
2018-04-24T15:11:47.589Z,6.03
2018-04-24T15:14:15.771Z,5.30
2018-04-24T15:16:43.895Z,6.45
2018-04-24T15:19:12.013Z,5.43
2018-04-24T15:21:40.141Z,5.83
2018-04-24T15:24:09.185Z,6.60
2018-04-24T15:26:37.298Z,6.47
2018-04-24T15:29:05.460Z,6.57
2018-04-24T15:31:33.566Z,6.10
2018-04-24T15:34:01.741Z,5.47
2018-04-24T15:36:29.934Z,6.07
2018-04-24T15:38:58.011Z,5.97
2018-04-24T15:41:26.160Z,6.43
2018-04-24T15:43:54.282Z,5.90
2018-04-24T15:46:22.414Z,6.13
2018-04-24T15:48:50.554Z,6.87
2018-04-24T15:51:18.678Z,7.25
2018-04-24T15:53:46.844Z,6.50
2018-04-24T15:56:14.969Z,6.60
2018-04-24T15:58:43.150Z,5.40
2018-04-24T16:01:11.271Z,6.37
2018-04-24T16:03:39.405Z,5.70
2018-04-24T16:06:07.542Z,6.73
2018-04-24T16:08:35.663Z,6.30
2018-04-24T16:11:04.496Z,6.40
2018-04-24T16:13:32.621Z,6.50
2018-04-24T16:16:00.741Z,6.97
2018-04-24T16:18:28.877Z,6.70
2018-04-24T16:20:57.011Z,6.30
2018-04-24T16:23:25.152Z,6.83
2018-04-24T16:25:53.274Z,5.50
2018-04-24T16:28:21.551Z,6.70
2018-04-24T16:30:49.682Z,6.70
2018-04-24T16:33:17.791Z,6.78
2018-04-24T16:35:46.023Z,6.70
2018-04-24T16:38:14.059Z,5.70
2018-04-24T16:40:42.190Z,5.70
2018-04-24T16:43:10.343Z,5.97
2018-04-24T16:45:38.493Z,5.85
2018-04-24T16:48:06.606Z,5.80
2018-04-24T16:50:34.847Z,5.77
2018-04-24T16:53:02.971Z,5.30
2018-04-24T16:55:31.115Z,6.37
2018-04-24T16:57:59.247Z,5.03
2018-04-24T17:00:27.368Z,7.07
2018-04-24T17:02:55.486Z,5.50
2018-04-24T17:05:23.727Z,6.18
2018-04-24T17:07:51.867Z,5.70
2018-04-24T17:10:20.013Z,5.40
2018-04-24T17:12:48.149Z,5.20
2018-04-24T17:15:16.278Z,5.72
2018-04-24T17:17:44.419Z,6.70
2018-04-24T17:20:12.590Z,5.20
2018-04-24T17:22:40.724Z,5.67
2018-04-24T17:25:08.852Z,5.97
2018-04-24T17:27:37.002Z,5.67
2018-04-24T17:30:05.142Z,5.90
2018-04-24T17:32:33.282Z,6.00
2018-04-24T17:35:01.399Z,6.40
2018-04-24T17:37:29.525Z,6.07
2018-04-24T17:39:57.641Z,6.50
2018-04-24T17:42:25.765Z,6.10
2018-04-24T17:44:53.914Z,6.00
2018-04-24T17:47:22.040Z,5.95
2018-04-24T17:49:50.204Z,7.20
2018-04-24T17:52:18.312Z,5.80
2018-04-24T17:54:46.431Z,6.30
2018-04-24T17:57:14.628Z,6.37
2018-04-24T17:59:42.699Z,6.03
2018-04-24T18:02:10.827Z,6.57
2018-04-24T18:04:38.951Z,6.50
2018-04-24T18:07:07.207Z,7.00
2018-04-24T18:09:35.331Z,7.10
2018-04-24T18:12:03.478Z,7.80
2018-04-24T18:14:31.603Z,7.07
2018-04-24T18:16:59.723Z,6.20
2018-04-24T18:19:27.852Z,7.30
2018-04-24T18:21:56.799Z,7.80
2018-04-24T18:24:24.927Z,6.80
2018-04-24T18:26:53.084Z,7.30
2018-04-24T18:29:21.191Z,7.10
2018-04-24T18:31:49.324Z,6.77
2018-04-24T18:34:17.662Z,8.17
2018-04-24T18:36:45.794Z,9.23
2018-04-24T18:39:13.913Z,9.33
2018-04-24T18:41:42.073Z,8.07
2018-04-24T18:44:10.197Z,7.87
2018-04-24T18:46:38.766Z,7.77
2018-04-24T18:49:07.000Z,8.97
2018-04-24T18:51:35.126Z,8.70
2018-04-24T18:54:03.254Z,8.60
2018-04-24T18:56:31.398Z,9.00
2018-04-24T18:58:59.530Z,8.57
2018-04-24T19:01:27.638Z,9.30
2018-04-24T19:03:55.808Z,9.00
2018-04-24T19:06:23.927Z,9.50
2018-04-24T19:08:52.047Z,8.70
2018-04-24T19:11:20.204Z,9.25
2018-04-24T19:13:48.335Z,9.70
2018-04-24T19:16:16.474Z,10.80
2018-04-24T19:18:50.252Z,10.00
2018-04-24T19:21:18.390Z,10.37
2018-04-24T19:23:46.551Z,9.50
2018-04-24T19:26:14.688Z,10.17
2018-04-24T19:28:42.813Z,10.70
2018-04-24T19:31:16.506Z,10.00
2018-04-24T19:33:45.162Z,10.80
2018-04-24T19:36:13.309Z,11.13
2018-04-24T19:38:46.955Z,11.27
2018-04-24T19:41:20.747Z,11.63
2018-04-24T19:43:48.867Z,10.13
2018-04-24T19:46:17.011Z,10.50
2018-04-24T19:48:50.688Z,10.60
2018-04-24T19:51:18.828Z,11.20
2018-04-24T19:53:46.968Z,11.07
2018-04-24T19:56:15.113Z,11.33
2018-04-24T19:58:43.309Z,11.60
2018-04-24T20:01:11.363Z,11.30
2018-04-24T20:03:39.496Z,10.83
2018-04-24T20:06:07.629Z,10.85
2018-04-24T20:08:35.771Z,10.23
2018-04-24T20:11:03.902Z,11.00
2018-04-24T20:13:32.074Z,11.20
2018-04-24T20:16:00.212Z,12.00
2018-04-24T20:18:28.343Z,11.30
2018-04-24T20:20:56.480Z,9.80
2018-04-24T20:23:24.621Z,10.80
2018-04-24T20:25:52.862Z,10.97
2018-04-24T20:28:21.000Z,12.00
2018-04-24T20:30:49.127Z,11.25
2018-04-24T20:33:17.260Z,11.00
2018-04-24T20:35:45.378Z,11.60
2018-04-24T20:38:13.510Z,10.97
2018-04-24T20:40:41.660Z,10.70
2018-04-24T20:43:09.992Z,10.93
2018-04-24T20:45:38.121Z,11.23
2018-04-24T20:48:06.250Z,11.47
2018-04-24T20:50:34.386Z,11.20
2018-04-24T20:53:02.528Z,10.90
2018-04-24T20:55:30.658Z,10.50
2018-04-24T20:57:58.773Z,11.70
2018-04-24T21:00:26.900Z,11.10
2018-04-24T21:02:55.028Z,11.43
2018-04-24T21:05:23.158Z,11.10
2018-04-24T21:07:51.299Z,11.43
2018-04-24T21:10:19.427Z,11.70
2018-04-24T21:12:47.624Z,12.00
2018-04-24T21:15:15.790Z,12.43
2018-04-24T21:17:43.939Z,12.17
2018-04-24T21:20:12.071Z,13.97
2018-04-24T21:22:40.194Z,11.93
2018-04-24T21:25:08.332Z,11.80
2018-04-24T21:27:36.468Z,10.80
2018-04-24T21:30:04.604Z,11.33
2018-04-24T21:32:32.782Z,11.70
2018-04-24T21:35:00.918Z,13.57
2018-04-24T21:37:29.041Z,13.43
2018-04-24T21:39:57.180Z,11.90
2018-04-24T21:42:25.309Z,12.48
2018-04-24T21:44:53.438Z,12.30
2018-04-24T21:47:21.614Z,12.20
2018-04-24T21:49:49.740Z,13.60
2018-04-24T21:52:17.866Z,12.10
2018-04-24T21:54:45.999Z,12.60
2018-04-24T21:57:14.126Z,13.30
2018-04-24T21:59:42.257Z,12.00
2018-04-24T22:02:10.412Z,12.33
2018-04-24T22:04:42.402Z,12.20
2018-04-24T22:07:10.578Z,12.90
2018-04-24T22:09:38.706Z,13.70
2018-04-24T22:12:06.845Z,13.70
2018-04-24T22:14:34.975Z,11.93
2018-04-24T22:17:03.110Z,13.27
2018-04-24T22:19:31.255Z,13.43
2018-04-24T22:21:59.387Z,12.27
2018-04-24T22:24:27.536Z,13.77
2018-04-24T22:26:55.768Z,11.50
2018-04-24T22:29:23.910Z,12.77
2018-04-24T22:31:52.052Z,13.00
2018-04-24T22:34:20.190Z,12.77
2018-04-24T22:36:48.327Z,12.73
2018-04-24T22:39:16.455Z,13.70
2018-04-24T22:41:44.580Z,13.63
2018-04-24T22:44:16.179Z,14.00
2018-04-24T22:46:44.314Z,13.70
2018-04-24T22:49:12.445Z,14.00
2018-04-24T22:51:40.583Z,13.30
2018-04-24T22:54:08.723Z,13.53
2018-04-24T22:56:36.859Z,14.60
2018-04-24T22:59:04.993Z,14.47
2018-04-24T23:01:33.117Z,13.27
2018-04-24T23:04:01.411Z,12.60
2018-04-24T23:06:29.538Z,14.80
2018-04-24T23:08:57.668Z,14.20
2018-04-24T23:11:37.856Z,12.98
2018-04-24T23:14:17.752Z,13.88
2018-04-24T23:16:57.785Z,14.77
2018-04-24T23:19:37.775Z,14.05
2018-04-24T23:22:05.376Z,13.20
2018-04-24T23:24:33.521Z,14.10
2018-04-24T23:27:01.641Z,13.48
2018-04-24T23:29:29.817Z,14.03
2018-04-24T23:31:57.933Z,13.10
2018-04-24T23:34:26.209Z,13.80
2018-04-24T23:36:54.334Z,14.10
2018-04-24T23:39:22.470Z,13.15
2018-04-24T23:41:50.616Z,14.23
2018-04-24T23:44:18.741Z,14.67
2018-04-24T23:46:46.871Z,14.40
2018-04-24T23:49:15.016Z,13.40
2018-04-24T23:51:43.147Z,13.67
2018-04-24T23:54:11.277Z,14.90
2018-04-24T23:56:39.409Z,14.00
2018-04-24T23:59:07.543Z,13.87
